Riviere-Bleue, Canada
Current Conditions -  °F | °C
As of 8:06 PM on Tuesday 27 Jan 2015 (Local Time) from KFVE Reporting Station
Light Snow Light Snow  
Wind Chill: -14°   Ceiling: 4100
Heat Index:   Visibility: 3mi
Dew Point:   Wind: 20mph
Humidity: 76%   Direction: 10°N
Pressure: 29.83"   Gusts: 29mph
Location:  47.43°N, 69.03°W
Report Text: KFVE 280106Z AUTO 01017G25KT 3SM -SN SCT028 OVC041 M14/M18 A2983 RMK AO2 P0000 T11441178
Loading
Personal Weather Stations






























Interactive Weather Map New forecast layout! Learn more

10-Day Weather Forecast

Advertisements
Track Severe Weather on mobile